KILG/ILG METAR and TAF weather

Enter ICAO airport designator
Station Type Date Time Source
KILG METAR 2019/06/16 04:51 UTC NOAA

KILG 160451Z AUTO 20008KT 10SM CLR 22/14 A2997 RMK AO2 SLP148 T02170144 402780111


Station Type Date Time Source
KILG Decoded METAR 2019/06/16 04:51 UTC NOAA

WILMINGTON NEW CASTLE CO, DE, United States (KILG) 39-40N 075-36W 28M
Jun 16, 2019 - 12:51 AM EDT / 2019.06.16 0451 UTC
Wind: from the SSW (200 degrees) at 9 MPH (8 KT):0
Visibility: 10 mile(s):0
Sky conditions: clear
Temperature: 71.1 F (21.7 C)
Dew Point: 57.9 F (14.4 C)
Relative Humidity: 63%
Pressure (altimeter): 29.97 in. Hg (1014 hPa)
ob: KILG 160451Z AUTO 20008KT 10SM CLR 22/14 A2997 RMK AO2 SLP148 T02170144 402780111
cycle: 5

Station Type Date Time Source
KILG TAF 2019/06/16 06:22 UTC NOAA

TAF KILG 160520Z 1606/1706 20009KT P6SM BKN120
FM161600 23010G19KT P6SM VCSH BKN060
FM161900 25013G23KT P6SM VCTS BKN050CB
FM170100 23006KT P6SM VCTS BKN040CB

Example: see airport list